Startpagina
METAR-TAF:

METAR-TAF

Vliegvelden :

Soldotna, Alaska, Verenigde Staten

breedte: 60-29N, lengte: 151-02W, hoogte: 33 m

Actueel weer

Dit bericht is 42 minuten geleden gemaakt, om 23:56 UTC
Wind 10 kt uit het noordoosten
Temperatuur 9°C
Vochtigheid 49%
Druk 1000 hPa
Zicht: 16.1 km
Gebroken wolken op 7500 ft
Gebroken wolken op 8500 ft

METAR: PASX 212356Z AUTO 05010KT 10SM BKN075 BKN085 09/M01 A2952 RMK AO2 SLP007 T00891006 10094 20056 58024

Tijdstip: 16:38 (00:38 UTC)


TAF: ontbreekt

Waarnemingen en weersverwachtingen van meer dan 4000 vliegvelden (METAR en TAF).

De beschikbare stations zijn de gele en rode punten op de kaart.

Ga met uw muis naar het station om de naam te zien.

Klik dan om waarnemingen en weersverwachtingen te zien.

kaart wijzigen: klik op de groene knoppen met een zwart kruis om in te zoomen, op de groene knop met een streepje om uit te zoomen of op de groene pijlen voor aangrenzende kaarten.


METAR-TAF: